sensor_id;sensor_type;location;lat;lon;timestamp;P1;durP1;ratioP1;P2;durP2;ratioP2
5042;SDS011;2540;50.928;6.856;2023-03-09T00:02:20;31.23;;;15.43;;
5042;SDS011;2540;50.928;6.856;2023-03-09T00:04:45;26.40;;;14.17;;
5042;SDS011;2540;50.928;6.856;2023-03-09T00:07:11;31.70;;;14.50;;
5042;SDS011;2540;50.928;6.856;2023-03-09T00:09:36;30.33;;;15.00;;
5042;SDS011;2540;50.928;6.856;2023-03-09T00:12:02;31.60;;;15.37;;
5042;SDS011;2540;50.928;6.856;2023-03-09T00:14:28;32.80;;;15.53;;
5042;SDS011;2540;50.928;6.856;2023-03-09T00:16:53;26.50;;;14.20;;
5042;SDS011;2540;50.928;6.856;2023-03-09T00:19:18;29.60;;;14.90;;
5042;SDS011;2540;50.928;6.856;2023-03-09T00:21:51;32.90;;;15.50;;
5042;SDS011;2540;50.928;6.856;2023-03-09T00:24:17;28.07;;;14.47;;
5042;SDS011;2540;50.928;6.856;2023-03-09T00:26:51;29.30;;;13.47;;
5042;SDS011;2540;50.928;6.856;2023-03-09T00:29:18;31.60;;;15.13;;
5042;SDS011;2540;50.928;6.856;2023-03-09T00:31:44;32.53;;;15.10;;
5042;SDS011;2540;50.928;6.856;2023-03-09T00:34:10;26.13;;;13.60;;
5042;SDS011;2540;50.928;6.856;2023-03-09T00:36:36;36.57;;;16.93;;
5042;SDS011;2540;50.928;6.856;2023-03-09T00:39:01;24.40;;;14.03;;
5042;SDS011;2540;50.928;6.856;2023-03-09T00:41:28;26.80;;;14.80;;
5042;SDS011;2540;50.928;6.856;2023-03-09T00:43:55;22.63;;;13.03;;
5042;SDS011;2540;50.928;6.856;2023-03-09T00:46:21;25.30;;;14.30;;
5042;SDS011;2540;50.928;6.856;2023-03-09T00:48:47;29.87;;;14.80;;
5042;SDS011;2540;50.928;6.856;2023-03-09T00:51:12;30.57;;;14.67;;
5042;SDS011;2540;50.928;6.856;2023-03-09T00:53:38;30.43;;;15.73;;
5042;SDS011;2540;50.928;6.856;2023-03-09T00:56:05;28.53;;;15.70;;
5042;SDS011;2540;50.928;6.856;2023-03-09T00:58:31;28.67;;;15.60;;
5042;SDS011;2540;50.928;6.856;2023-03-09T01:00:57;31.63;;;14.73;;
5042;SDS011;2540;50.928;6.856;2023-03-09T01:03:22;27.43;;;14.93;;
5042;SDS011;2540;50.928;6.856;2023-03-09T01:05:48;30.00;;;14.97;;
5042;SDS011;2540;50.928;6.856;2023-03-09T01:08:14;26.90;;;14.27;;
5042;SDS011;2540;50.928;6.856;2023-03-09T01:10:39;20.83;;;12.37;;
5042;SDS011;2540;50.928;6.856;2023-03-09T01:13:05;24.33;;;12.90;;
5042;SDS011;2540;50.928;6.856;2023-03-09T01:15:30;26.03;;;13.67;;
5042;SDS011;2540;50.928;6.856;2023-03-09T01:17:56;26.20;;;13.47;;
5042;SDS011;2540;50.928;6.856;2023-03-09T01:20:21;25.70;;;13.33;;
5042;SDS011;2540;50.928;6.856;2023-03-09T01:22:47;28.43;;;14.73;;
5042;SDS011;2540;50.928;6.856;2023-03-09T01:25:12;25.67;;;13.80;;
5042;SDS011;2540;50.928;6.856;2023-03-09T01:27:38;23.73;;;13.23;;
5042;SDS011;2540;50.928;6.856;2023-03-09T01:30:04;25.70;;;12.90;;
5042;SDS011;2540;50.928;6.856;2023-03-09T01:32:30;31.67;;;13.30;;
5042;SDS011;2540;50.928;6.856;2023-03-09T01:34:56;25.43;;;13.27;;
5042;SDS011;2540;50.928;6.856;2023-03-09T01:37:21;26.13;;;13.67;;
5042;SDS011;2540;50.928;6.856;2023-03-09T01:39:46;25.23;;;14.20;;
5042;SDS011;2540;50.928;6.856;2023-03-09T01:42:12;24.57;;;13.90;;
5042;SDS011;2540;50.928;6.856;2023-03-09T01:44:37;22.90;;;13.37;;
5042;SDS011;2540;50.928;6.856;2023-03-09T01:47:03;27.50;;;13.70;;
5042;SDS011;2540;50.928;6.856;2023-03-09T01:49:40;23.43;;;13.30;;
5042;SDS011;2540;50.928;6.856;2023-03-09T01:52:15;28.30;;;14.80;;
5042;SDS011;2540;50.928;6.856;2023-03-09T01:54:45;25.77;;;14.43;;
5042;SDS011;2540;50.928;6.856;2023-03-09T01:57:25;28.60;;;14.60;;
5042;SDS011;2540;50.928;6.856;2023-03-09T01:59:53;32.93;;;16.10;;
5042;SDS011;2540;50.928;6.856;2023-03-09T02:02:20;29.30;;;14.53;;
5042;SDS011;2540;50.928;6.856;2023-03-09T02:04:50;28.60;;;15.17;;
5042;SDS011;2540;50.928;6.856;2023-03-09T02:07:17;25.73;;;14.27;;
5042;SDS011;2540;50.928;6.856;2023-03-09T02:09:46;28.00;;;14.40;;
5042;SDS011;2540;50.928;6.856;2023-03-09T02:12:16;22.80;;;12.97;;
5042;SDS011;2540;50.928;6.856;2023-03-09T02:14:44;24.27;;;13.70;;
5042;SDS011;2540;50.928;6.856;2023-03-09T02:17:09;22.77;;;11.97;;
5042;SDS011;2540;50.928;6.856;2023-03-09T02:19:57;21.70;;;12.40;;
5042;SDS011;2540;50.928;6.856;2023-03-09T02:22:33;21.93;;;12.70;;
5042;SDS011;2540;50.928;6.856;2023-03-09T02:25:02;19.50;;;12.27;;
5042;SDS011;2540;50.928;6.856;2023-03-09T02:27:33;25.47;;;13.67;;
5042;SDS011;2540;50.928;6.856;2023-03-09T02:29:59;22.40;;;13.37;;
5042;SDS011;2540;50.928;6.856;2023-03-09T02:32:24;23.60;;;13.33;;
5042;SDS011;2540;50.928;6.856;2023-03-09T02:34:50;29.80;;;15.40;;
5042;SDS011;2540;50.928;6.856;2023-03-09T02:39:57;32.03;;;16.80;;
5042;SDS011;2540;50.928;6.856;2023-03-09T02:42:35;27.80;;;15.03;;
5042;SDS011;2540;50.928;6.856;2023-03-09T02:45:01;30.57;;;15.60;;
5042;SDS011;2540;50.928;6.856;2023-03-09T02:47:27;32.80;;;16.83;;
5042;SDS011;2540;50.928;6.856;2023-03-09T02:49:52;39.67;;;18.80;;
5042;SDS011;2540;50.928;6.856;2023-03-09T02:52:17;31.13;;;16.37;;
5042;SDS011;2540;50.928;6.856;2023-03-09T02:54:43;40.40;;;18.80;;
5042;SDS011;2540;50.928;6.856;2023-03-09T02:57:08;41.80;;;18.90;;
5042;SDS011;2540;50.928;6.856;2023-03-09T02:59:34;44.13;;;19.67;;
5042;SDS011;2540;50.928;6.856;2023-03-09T03:01:59;37.40;;;18.43;;
5042;SDS011;2540;50.928;6.856;2023-03-09T03:04:25;44.33;;;20.40;;
5042;SDS011;2540;50.928;6.856;2023-03-09T03:06:50;43.17;;;21.17;;
5042;SDS011;2540;50.928;6.856;2023-03-09T03:09:15;45.63;;;21.63;;
5042;SDS011;2540;50.928;6.856;2023-03-09T03:11:41;46.80;;;21.80;;
5042;SDS011;2540;50.928;6.856;2023-03-09T03:14:06;50.80;;;22.07;;
5042;SDS011;2540;50.928;6.856;2023-03-09T03:16:33;51.47;;;22.43;;
5042;SDS011;2540;50.928;6.856;2023-03-09T03:18:59;54.27;;;23.40;;
5042;SDS011;2540;50.928;6.856;2023-03-09T03:21:24;49.50;;;20.77;;
5042;SDS011;2540;50.928;6.856;2023-03-09T03:23:49;53.10;;;24.00;;
5042;SDS011;2540;50.928;6.856;2023-03-09T03:26:15;52.73;;;22.33;;
5042;SDS011;2540;50.928;6.856;2023-03-09T03:28:41;64.57;;;24.50;;
5042;SDS011;2540;50.928;6.856;2023-03-09T03:31:06;54.70;;;22.60;;
5042;SDS011;2540;50.928;6.856;2023-03-09T03:33:32;54.50;;;21.80;;
5042;SDS011;2540;50.928;6.856;2023-03-09T03:35:57;52.77;;;22.93;;
5042;SDS011;2540;50.928;6.856;2023-03-09T03:38:23;56.50;;;23.97;;
5042;SDS011;2540;50.928;6.856;2023-03-09T03:40:48;56.67;;;21.90;;
5042;SDS011;2540;50.928;6.856;2023-03-09T03:43:14;55.77;;;22.90;;
5042;SDS011;2540;50.928;6.856;2023-03-09T03:45:39;53.97;;;23.37;;
5042;SDS011;2540;50.928;6.856;2023-03-09T03:48:05;61.43;;;23.37;;
5042;SDS011;2540;50.928;6.856;2023-03-09T03:50:30;51.60;;;22.43;;
5042;SDS011;2540;50.928;6.856;2023-03-09T03:52:55;59.40;;;22.90;;
5042;SDS011;2540;50.928;6.856;2023-03-09T03:55:21;53.90;;;22.50;;
5042;SDS011;2540;50.928;6.856;2023-03-09T03:57:46;63.73;;;24.37;;
5042;SDS011;2540;50.928;6.856;2023-03-09T04:00:12;60.73;;;22.73;;
5042;SDS011;2540;50.928;6.856;2023-03-09T04:02:38;55.87;;;21.63;;
5042;SDS011;2540;50.928;6.856;2023-03-09T04:05:04;53.67;;;21.90;;
5042;SDS011;2540;50.928;6.856;2023-03-09T04:07:29;56.60;;;22.93;;
5042;SDS011;2540;50.928;6.856;2023-03-09T04:09:55;63.53;;;23.40;;
5042;SDS011;2540;50.928;6.856;2023-03-09T04:12:20;61.53;;;23.40;;
5042;SDS011;2540;50.928;6.856;2023-03-09T04:14:45;56.97;;;20.60;;
5042;SDS011;2540;50.928;6.856;2023-03-09T04:17:11;59.77;;;21.67;;
5042;SDS011;2540;50.928;6.856;2023-03-09T04:19:36;50.93;;;20.43;;
5042;SDS011;2540;50.928;6.856;2023-03-09T04:22:02;54.43;;;21.57;;
5042;SDS011;2540;50.928;6.856;2023-03-09T04:24:27;56.80;;;21.43;;
5042;SDS011;2540;50.928;6.856;2023-03-09T04:26:52;56.20;;;22.33;;
5042;SDS011;2540;50.928;6.856;2023-03-09T04:29:18;57.13;;;21.47;;
5042;SDS011;2540;50.928;6.856;2023-03-09T04:31:43;55.37;;;21.17;;
5042;SDS011;2540;50.928;6.856;2023-03-09T04:34:10;54.20;;;20.80;;
5042;SDS011;2540;50.928;6.856;2023-03-09T04:39:06;54.33;;;20.67;;
5042;SDS011;2540;50.928;6.856;2023-03-09T04:41:32;60.57;;;23.50;;
5042;SDS011;2540;50.928;6.856;2023-03-09T04:43:57;54.07;;;20.53;;
5042;SDS011;2540;50.928;6.856;2023-03-09T04:46:22;56.90;;;21.03;;
5042;SDS011;2540;50.928;6.856;2023-03-09T04:48:48;49.97;;;18.33;;
5042;SDS011;2540;50.928;6.856;2023-03-09T04:51:13;48.73;;;19.23;;
5042;SDS011;2540;50.928;6.856;2023-03-09T04:53:38;47.83;;;20.20;;
5042;SDS011;2540;50.928;6.856;2023-03-09T04:56:04;52.47;;;20.73;;
5042;SDS011;2540;50.928;6.856;2023-03-09T04:58:30;45.47;;;19.70;;
5042;SDS011;2540;50.928;6.856;2023-03-09T05:00:55;41.73;;;17.77;;
5042;SDS011;2540;50.928;6.856;2023-03-09T05:03:20;38.27;;;16.37;;
5042;SDS011;2540;50.928;6.856;2023-03-09T05:05:46;49.90;;;18.53;;
5042;SDS011;2540;50.928;6.856;2023-03-09T05:08:11;46.83;;;17.67;;
5042;SDS011;2540;50.928;6.856;2023-03-09T05:10:37;43.57;;;17.27;;
5042;SDS011;2540;50.928;6.856;2023-03-09T05:13:02;39.93;;;16.20;;
5042;SDS011;2540;50.928;6.856;2023-03-09T05:15:27;41.10;;;17.80;;
5042;SDS011;2540;50.928;6.856;2023-03-09T05:17:53;45.33;;;17.17;;
5042;SDS011;2540;50.928;6.856;2023-03-09T05:20:18;40.13;;;16.00;;
5042;SDS011;2540;50.928;6.856;2023-03-09T05:22:43;38.23;;;17.00;;
5042;SDS011;2540;50.928;6.856;2023-03-09T05:25:09;41.80;;;17.40;;
5042;SDS011;2540;50.928;6.856;2023-03-09T05:27:34;43.07;;;15.70;;
5042;SDS011;2540;50.928;6.856;2023-03-09T05:30:00;47.43;;;18.50;;
5042;SDS011;2540;50.928;6.856;2023-03-09T05:32:26;46.93;;;19.27;;
5042;SDS011;2540;50.928;6.856;2023-03-09T05:34:51;42.40;;;17.30;;
5042;SDS011;2540;50.928;6.856;2023-03-09T05:37:17;45.23;;;17.90;;
5042;SDS011;2540;50.928;6.856;2023-03-09T05:39:42;48.93;;;17.90;;
5042;SDS011;2540;50.928;6.856;2023-03-09T05:42:07;41.60;;;16.00;;
5042;SDS011;2540;50.928;6.856;2023-03-09T05:44:33;35.57;;;15.03;;
5042;SDS011;2540;50.928;6.856;2023-03-09T05:46:58;36.70;;;15.73;;
5042;SDS011;2540;50.928;6.856;2023-03-09T05:49:24;37.00;;;15.73;;
5042;SDS011;2540;50.928;6.856;2023-03-09T05:51:53;32.47;;;14.67;;
5042;SDS011;2540;50.928;6.856;2023-03-09T05:54:21;31.33;;;13.83;;
5042;SDS011;2540;50.928;6.856;2023-03-09T05:56:47;31.27;;;13.83;;
5042;SDS011;2540;50.928;6.856;2023-03-09T05:59:12;38.93;;;14.17;;
5042;SDS011;2540;50.928;6.856;2023-03-09T06:01:38;31.07;;;13.40;;
5042;SDS011;2540;50.928;6.856;2023-03-09T06:04:03;34.50;;;13.70;;
5042;SDS011;2540;50.928;6.856;2023-03-09T06:06:29;32.57;;;14.30;;
5042;SDS011;2540;50.928;6.856;2023-03-09T06:08:54;25.17;;;12.77;;
5042;SDS011;2540;50.928;6.856;2023-03-09T06:11:20;30.27;;;11.77;;
5042;SDS011;2540;50.928;6.856;2023-03-09T06:13:46;29.10;;;12.40;;
5042;SDS011;2540;50.928;6.856;2023-03-09T06:16:13;24.20;;;11.70;;
5042;SDS011;2540;50.928;6.856;2023-03-09T06:18:40;28.70;;;12.03;;
5042;SDS011;2540;50.928;6.856;2023-03-09T06:21:05;28.30;;;12.37;;
5042;SDS011;2540;50.928;6.856;2023-03-09T06:23:31;26.30;;;12.70;;
5042;SDS011;2540;50.928;6.856;2023-03-09T06:25:57;28.97;;;12.73;;
5042;SDS011;2540;50.928;6.856;2023-03-09T06:28:23;30.00;;;14.83;;
5042;SDS011;2540;50.928;6.856;2023-03-09T06:30:49;29.33;;;12.60;;
5042;SDS011;2540;50.928;6.856;2023-03-09T06:33:14;23.20;;;11.30;;
5042;SDS011;2540;50.928;6.856;2023-03-09T06:35:40;26.67;;;12.83;;
5042;SDS011;2540;50.928;6.856;2023-03-09T06:38:06;31.67;;;13.67;;
5042;SDS011;2540;50.928;6.856;2023-03-09T06:40:32;23.63;;;11.50;;
5042;SDS011;2540;50.928;6.856;2023-03-09T06:42:57;26.03;;;12.03;;
5042;SDS011;2540;50.928;6.856;2023-03-09T06:45:22;28.70;;;12.30;;
5042;SDS011;2540;50.928;6.856;2023-03-09T06:47:48;31.30;;;12.70;;
5042;SDS011;2540;50.928;6.856;2023-03-09T06:50:14;30.97;;;12.97;;
5042;SDS011;2540;50.928;6.856;2023-03-09T06:52:39;31.27;;;12.70;;
5042;SDS011;2540;50.928;6.856;2023-03-09T06:55:05;29.33;;;12.23;;
5042;SDS011;2540;50.928;6.856;2023-03-09T06:57:30;24.77;;;11.73;;
5042;SDS011;2540;50.928;6.856;2023-03-09T06:59:56;21.10;;;10.90;;
5042;SDS011;2540;50.928;6.856;2023-03-09T07:02:21;33.87;;;12.33;;
5042;SDS011;2540;50.928;6.856;2023-03-09T07:04:46;29.23;;;12.17;;
5042;SDS011;2540;50.928;6.856;2023-03-09T07:07:12;24.90;;;11.50;;
5042;SDS011;2540;50.928;6.856;2023-03-09T07:09:37;24.57;;;11.40;;
5042;SDS011;2540;50.928;6.856;2023-03-09T07:12:03;27.53;;;12.20;;
5042;SDS011;2540;50.928;6.856;2023-03-09T07:14:29;21.17;;;10.43;;
5042;SDS011;2540;50.928;6.856;2023-03-09T07:16:54;22.37;;;10.93;;
5042;SDS011;2540;50.928;6.856;2023-03-09T07:19:20;26.43;;;12.07;;
5042;SDS011;2540;50.928;6.856;2023-03-09T07:21:47;26.47;;;11.73;;
5042;SDS011;2540;50.928;6.856;2023-03-09T07:24:12;25.70;;;12.60;;
5042;SDS011;2540;50.928;6.856;2023-03-09T07:26:38;23.77;;;11.80;;
5042;SDS011;2540;50.928;6.856;2023-03-09T07:29:04;26.00;;;10.50;;
5042;SDS011;2540;50.928;6.856;2023-03-09T07:31:29;23.07;;;10.70;;
5042;SDS011;2540;50.928;6.856;2023-03-09T07:33:55;24.60;;;10.57;;
5042;SDS011;2540;50.928;6.856;2023-03-09T07:36:21;23.03;;;11.00;;
5042;SDS011;2540;50.928;6.856;2023-03-09T07:38:46;25.50;;;10.43;;
5042;SDS011;2540;50.928;6.856;2023-03-09T07:41:12;28.50;;;10.20;;
5042;SDS011;2540;50.928;6.856;2023-03-09T07:43:38;23.07;;;10.60;;
5042;SDS011;2540;50.928;6.856;2023-03-09T07:46:09;30.03;;;12.20;;
5042;SDS011;2540;50.928;6.856;2023-03-09T07:48:34;22.80;;;10.60;;
5042;SDS011;2540;50.928;6.856;2023-03-09T07:51:02;25.10;;;11.30;;
5042;SDS011;2540;50.928;6.856;2023-03-09T07:53:32;21.70;;;10.90;;
5042;SDS011;2540;50.928;6.856;2023-03-09T07:55:59;27.40;;;10.67;;
5042;SDS011;2540;50.928;6.856;2023-03-09T07:58:29;22.30;;;10.43;;
5042;SDS011;2540;50.928;6.856;2023-03-09T08:00:55;23.57;;;10.40;;
5042;SDS011;2540;50.928;6.856;2023-03-09T08:03:21;19.50;;;9.27;;
5042;SDS011;2540;50.928;6.856;2023-03-09T08:05:49;18.53;;;8.97;;
5042;SDS011;2540;50.928;6.856;2023-03-09T08:08:19;21.23;;;9.43;;
5042;SDS011;2540;50.928;6.856;2023-03-09T08:10:51;16.80;;;9.60;;
5042;SDS011;2540;50.928;6.856;2023-03-09T08:13:17;19.63;;;10.17;;
5042;SDS011;2540;50.928;6.856;2023-03-09T08:15:43;17.33;;;9.40;;
5042;SDS011;2540;50.928;6.856;2023-03-09T08:18:08;18.97;;;9.00;;
5042;SDS011;2540;50.928;6.856;2023-03-09T08:20:34;20.53;;;9.60;;
5042;SDS011;2540;50.928;6.856;2023-03-09T08:22:59;18.93;;;9.30;;
5042;SDS011;2540;50.928;6.856;2023-03-09T08:25:25;17.67;;;9.07;;
5042;SDS011;2540;50.928;6.856;2023-03-09T08:27:50;24.17;;;11.20;;
5042;SDS011;2540;50.928;6.856;2023-03-09T08:30:16;22.87;;;11.33;;
5042;SDS011;2540;50.928;6.856;2023-03-09T08:32:44;19.13;;;8.90;;
5042;SDS011;2540;50.928;6.856;2023-03-09T08:35:12;21.50;;;8.80;;
5042;SDS011;2540;50.928;6.856;2023-03-09T08:37:38;16.73;;;8.10;;
5042;SDS011;2540;50.928;6.856;2023-03-09T08:40:04;11.60;;;6.60;;
5042;SDS011;2540;50.928;6.856;2023-03-09T08:42:29;20.10;;;8.40;;
5042;SDS011;2540;50.928;6.856;2023-03-09T08:44:54;14.43;;;7.57;;
5042;SDS011;2540;50.928;6.856;2023-03-09T08:47:20;17.20;;;7.53;;
5042;SDS011;2540;50.928;6.856;2023-03-09T08:49:48;13.63;;;7.80;;
5042;SDS011;2540;50.928;6.856;2023-03-09T08:52:14;14.07;;;7.03;;
5042;SDS011;2540;50.928;6.856;2023-03-09T08:54:40;12.77;;;7.70;;
5042;SDS011;2540;50.928;6.856;2023-03-09T08:57:05;15.63;;;8.20;;
5042;SDS011;2540;50.928;6.856;2023-03-09T08:59:31;15.17;;;8.37;;
5042;SDS011;2540;50.928;6.856;2023-03-09T09:01:56;18.60;;;8.40;;
5042;SDS011;2540;50.928;6.856;2023-03-09T09:04:23;13.33;;;7.80;;
5042;SDS011;2540;50.928;6.856;2023-03-09T09:06:48;17.50;;;8.23;;
5042;SDS011;2540;50.928;6.856;2023-03-09T09:09:14;13.43;;;6.90;;
5042;SDS011;2540;50.928;6.856;2023-03-09T09:11:39;12.30;;;7.37;;
5042;SDS011;2540;50.928;6.856;2023-03-09T09:14:04;15.43;;;7.83;;
5042;SDS011;2540;50.928;6.856;2023-03-09T09:16:30;12.10;;;6.57;;
5042;SDS011;2540;50.928;6.856;2023-03-09T09:18:55;9.10;;;5.33;;
5042;SDS011;2540;50.928;6.856;2023-03-09T09:21:21;8.53;;;5.77;;
5042;SDS011;2540;50.928;6.856;2023-03-09T09:23:47;10.60;;;5.63;;
5042;SDS011;2540;50.928;6.856;2023-03-09T09:26:14;9.67;;;5.80;;
5042;SDS011;2540;50.928;6.856;2023-03-09T09:28:40;11.13;;;6.30;;
5042;SDS011;2540;50.928;6.856;2023-03-09T09:31:06;8.77;;;5.60;;
5042;SDS011;2540;50.928;6.856;2023-03-09T09:33:32;13.40;;;6.53;;
5042;SDS011;2540;50.928;6.856;2023-03-09T09:36:03;11.87;;;5.57;;
5042;SDS011;2540;50.928;6.856;2023-03-09T09:38:31;13.43;;;7.23;;
5042;SDS011;2540;50.928;6.856;2023-03-09T09:40:59;12.03;;;7.10;;
5042;SDS011;2540;50.928;6.856;2023-03-09T09:43:28;10.63;;;6.17;;
5042;SDS011;2540;50.928;6.856;2023-03-09T09:45:55;17.43;;;6.13;;
5042;SDS011;2540;50.928;6.856;2023-03-09T09:48:22;12.47;;;6.60;;
5042;SDS011;2540;50.928;6.856;2023-03-09T09:56:47;10.10;;;5.60;;
5042;SDS011;2540;50.928;6.856;2023-03-09T09:59:18;11.67;;;6.60;;
5042;SDS011;2540;50.928;6.856;2023-03-09T10:01:47;11.10;;;5.67;;
5042;SDS011;2540;50.928;6.856;2023-03-09T10:04:39;10.93;;;5.20;;
5042;SDS011;2540;50.928;6.856;2023-03-09T10:07:14;9.30;;;4.80;;
5042;SDS011;2540;50.928;6.856;2023-03-09T10:09:42;9.40;;;5.03;;
5042;SDS011;2540;50.928;6.856;2023-03-09T10:12:10;8.70;;;4.97;;
5042;SDS011;2540;50.928;6.856;2023-03-09T10:14:41;6.60;;;4.40;;
5042;SDS011;2540;50.928;6.856;2023-03-09T10:17:16;15.23;;;4.63;;
5042;SDS011;2540;50.928;6.856;2023-03-09T10:19:46;11.50;;;4.80;;
5042;SDS011;2540;50.928;6.856;2023-03-09T10:24:46;5.97;;;4.20;;
5042;SDS011;2540;50.928;6.856;2023-03-09T10:37:54;12.90;;;6.50;;
5042;SDS011;2540;50.928;6.856;2023-03-09T10:40:21;9.77;;;5.20;;
5042;SDS011;2540;50.928;6.856;2023-03-09T10:42:58;14.83;;;5.90;;
5042;SDS011;2540;50.928;6.856;2023-03-09T10:45:27;7.23;;;5.00;;
5042;SDS011;2540;50.928;6.856;2023-03-09T10:50:26;7.03;;;5.00;;
5042;SDS011;2540;50.928;6.856;2023-03-09T10:52:54;7.07;;;4.70;;
5042;SDS011;2540;50.928;6.856;2023-03-09T10:55:31;7.80;;;5.07;;
5042;SDS011;2540;50.928;6.856;2023-03-09T10:58:06;9.33;;;5.70;;
5042;SDS011;2540;50.928;6.856;2023-03-09T11:01:40;6.10;;;4.60;;
5042;SDS011;2540;50.928;6.856;2023-03-09T11:03:40;7.00;;;4.60;;
5042;SDS011;2540;50.928;6.856;2023-03-09T11:08:41;8.40;;;5.37;;
5042;SDS011;2540;50.928;6.856;2023-03-09T11:11:18;8.27;;;5.57;;
5042;SDS011;2540;50.928;6.856;2023-03-09T11:13:45;9.77;;;5.30;;
5042;SDS011;2540;50.928;6.856;2023-03-09T11:16:15;8.77;;;6.07;;
5042;SDS011;2540;50.928;6.856;2023-03-09T11:18:42;11.23;;;5.70;;
5042;SDS011;2540;50.928;6.856;2023-03-09T11:21:08;9.87;;;5.60;;
5042;SDS011;2540;50.928;6.856;2023-03-09T11:23:47;9.10;;;6.20;;
5042;SDS011;2540;50.928;6.856;2023-03-09T11:28:57;8.83;;;5.77;;
5042;SDS011;2540;50.928;6.856;2023-03-09T11:31:41;8.97;;;5.80;;
5042;SDS011;2540;50.928;6.856;2023-03-09T11:34:11;10.30;;;6.23;;
5042;SDS011;2540;50.928;6.856;2023-03-09T11:36:57;8.77;;;4.83;;
5042;SDS011;2540;50.928;6.856;2023-03-09T11:39:25;9.80;;;6.03;;
5042;SDS011;2540;50.928;6.856;2023-03-09T11:41:54;8.40;;;5.53;;
5042;SDS011;2540;50.928;6.856;2023-03-09T11:44:25;8.83;;;5.90;;
5042;SDS011;2540;50.928;6.856;2023-03-09T11:46:56;9.70;;;6.00;;
5042;SDS011;2540;50.928;6.856;2023-03-09T11:49:24;10.83;;;6.97;;
5042;SDS011;2540;50.928;6.856;2023-03-09T11:51:51;10.80;;;5.73;;
5042;SDS011;2540;50.928;6.856;2023-03-09T11:56:55;10.00;;;6.30;;
5042;SDS011;2540;50.928;6.856;2023-03-09T12:02:16;12.00;;;7.27;;
5042;SDS011;2540;50.928;6.856;2023-03-09T12:04:46;11.80;;;6.67;;
5042;SDS011;2540;50.928;6.856;2023-03-09T12:07:28;11.30;;;7.07;;
5042;SDS011;2540;50.928;6.856;2023-03-09T12:13:04;10.00;;;6.80;;
5042;SDS011;2540;50.928;6.856;2023-03-09T12:18:04;11.20;;;6.30;;
5042;SDS011;2540;50.928;6.856;2023-03-09T12:20:37;12.80;;;7.27;;
5042;SDS011;2540;50.928;6.856;2023-03-09T12:23:05;12.93;;;7.47;;
5042;SDS011;2540;50.928;6.856;2023-03-09T12:26:03;10.70;;;6.80;;
5042;SDS011;2540;50.928;6.856;2023-03-09T12:31:30;15.60;;;6.80;;
5042;SDS011;2540;50.928;6.856;2023-03-09T12:42:00;15.70;;;7.87;;
5042;SDS011;2540;50.928;6.856;2023-03-09T12:49:58;12.10;;;7.53;;
5042;SDS011;2540;50.928;6.856;2023-03-09T12:52:46;15.97;;;8.60;;
5042;SDS011;2540;50.928;6.856;2023-03-09T13:00:55;16.40;;;8.07;;
5042;SDS011;2540;50.928;6.856;2023-03-09T13:03:26;16.40;;;10.00;;
5042;SDS011;2540;50.928;6.856;2023-03-09T13:05:56;18.70;;;9.87;;
5042;SDS011;2540;50.928;6.856;2023-03-09T13:08:31;17.90;;;8.57;;
5042;SDS011;2540;50.928;6.856;2023-03-09T13:13:48;15.87;;;8.93;;
5042;SDS011;2540;50.928;6.856;2023-03-09T13:27:06;12.50;;;8.30;;
5042;SDS011;2540;50.928;6.856;2023-03-09T13:29:37;12.43;;;7.90;;
5042;SDS011;2540;50.928;6.856;2023-03-09T13:32:18;16.17;;;9.37;;
5042;SDS011;2540;50.928;6.856;2023-03-09T13:34:45;21.10;;;9.53;;
5042;SDS011;2540;50.928;6.856;2023-03-09T13:37:15;16.87;;;8.87;;
5042;SDS011;2540;50.928;6.856;2023-03-09T13:39:55;14.60;;;8.87;;
5042;SDS011;2540;50.928;6.856;2023-03-09T13:42:24;19.77;;;10.00;;
5042;SDS011;2540;50.928;6.856;2023-03-09T13:44:50;22.60;;;9.10;;
5042;SDS011;2540;50.928;6.856;2023-03-09T13:47:23;17.30;;;10.50;;
5042;SDS011;2540;50.928;6.856;2023-03-09T13:49:52;17.63;;;10.80;;
5042;SDS011;2540;50.928;6.856;2023-03-09T13:52:19;19.33;;;10.20;;
5042;SDS011;2540;50.928;6.856;2023-03-09T13:57:23;17.10;;;10.70;;
5042;SDS011;2540;50.928;6.856;2023-03-09T13:59:53;19.70;;;12.00;;
5042;SDS011;2540;50.928;6.856;2023-03-09T14:02:20;16.20;;;9.83;;
5042;SDS011;2540;50.928;6.856;2023-03-09T14:07:22;18.53;;;11.30;;
5042;SDS011;2540;50.928;6.856;2023-03-09T14:09:50;19.83;;;11.23;;
5042;SDS011;2540;50.928;6.856;2023-03-09T14:12:29;20.53;;;10.20;;
5042;SDS011;2540;50.928;6.856;2023-03-09T14:14:56;18.07;;;11.63;;
5042;SDS011;2540;50.928;6.856;2023-03-09T14:17:22;20.37;;;11.53;;
5042;SDS011;2540;50.928;6.856;2023-03-09T14:19:51;17.90;;;11.83;;
5042;SDS011;2540;50.928;6.856;2023-03-09T14:22:18;19.07;;;11.47;;
5042;SDS011;2540;50.928;6.856;2023-03-09T14:24:45;18.73;;;11.30;;
5042;SDS011;2540;50.928;6.856;2023-03-09T14:27:11;22.17;;;12.83;;
5042;SDS011;2540;50.928;6.856;2023-03-09T14:29:38;19.37;;;12.63;;
5042;SDS011;2540;50.928;6.856;2023-03-09T14:32:20;15.40;;;10.40;;
5042;SDS011;2540;50.928;6.856;2023-03-09T14:34:52;20.30;;;12.13;;
5042;SDS011;2540;50.928;6.856;2023-03-09T14:37:20;14.93;;;10.27;;
5042;SDS011;2540;50.928;6.856;2023-03-09T14:39:50;17.10;;;11.03;;
5042;SDS011;2540;50.928;6.856;2023-03-09T14:42:17;15.60;;;10.80;;
5042;SDS011;2540;50.928;6.856;2023-03-09T14:47:40;19.03;;;10.50;;
5042;SDS011;2540;50.928;6.856;2023-03-09T14:50:06;17.43;;;9.80;;
5042;SDS011;2540;50.928;6.856;2023-03-09T14:52:37;21.07;;;9.63;;
5042;SDS011;2540;50.928;6.856;2023-03-09T14:55:02;15.87;;;8.77;;
5042;SDS011;2540;50.928;6.856;2023-03-09T14:57:30;14.57;;;9.43;;
5042;SDS011;2540;50.928;6.856;2023-03-09T14:59:55;13.97;;;9.37;;
5042;SDS011;2540;50.928;6.856;2023-03-09T15:02:20;17.40;;;9.30;;
5042;SDS011;2540;50.928;6.856;2023-03-09T15:04:46;20.73;;;10.23;;
5042;SDS011;2540;50.928;6.856;2023-03-09T15:07:13;15.53;;;9.10;;
5042;SDS011;2540;50.928;6.856;2023-03-09T15:09:39;15.43;;;9.27;;
5042;SDS011;2540;50.928;6.856;2023-03-09T15:12:09;14.63;;;8.73;;
5042;SDS011;2540;50.928;6.856;2023-03-09T15:14:39;13.83;;;8.00;;
5042;SDS011;2540;50.928;6.856;2023-03-09T15:17:06;15.37;;;8.43;;
5042;SDS011;2540;50.928;6.856;2023-03-09T15:19:32;14.60;;;8.60;;
5042;SDS011;2540;50.928;6.856;2023-03-09T15:21:58;17.97;;;9.20;;
5042;SDS011;2540;50.928;6.856;2023-03-09T15:24:27;15.77;;;7.63;;
5042;SDS011;2540;50.928;6.856;2023-03-09T15:26:54;15.97;;;2.83;;
5042;SDS011;2540;50.928;6.856;2023-03-09T15:29:20;13.37;;;2.43;;
5042;SDS011;2540;50.928;6.856;2023-03-09T15:31:46;20.47;;;2.10;;
5042;SDS011;2540;50.928;6.856;2023-03-09T15:34:11;11.80;;;2.23;;
5042;SDS011;2540;50.928;6.856;2023-03-09T15:36:37;7.73;;;1.90;;
5042;SDS011;2540;50.928;6.856;2023-03-09T15:39:03;11.80;;;2.43;;
5042;SDS011;2540;50.928;6.856;2023-03-09T15:41:28;15.40;;;3.23;;
5042;SDS011;2540;50.928;6.856;2023-03-09T15:43:53;12.43;;;2.57;;
5042;SDS011;2540;50.928;6.856;2023-03-09T15:46:19;16.73;;;2.50;;
5042;SDS011;2540;50.928;6.856;2023-03-09T15:48:44;13.40;;;1.97;;
5042;SDS011;2540;50.928;6.856;2023-03-09T15:51:09;13.03;;;2.10;;
5042;SDS011;2540;50.928;6.856;2023-03-09T15:53:35;14.33;;;2.77;;
5042;SDS011;2540;50.928;6.856;2023-03-09T15:56:01;14.20;;;2.40;;
5042;SDS011;2540;50.928;6.856;2023-03-09T15:58:28;9.93;;;2.50;;
5042;SDS011;2540;50.928;6.856;2023-03-09T16:00:59;15.83;;;2.73;;
5042;SDS011;2540;50.928;6.856;2023-03-09T16:03:29;12.23;;;2.80;;
5042;SDS011;2540;50.928;6.856;2023-03-09T16:05:56;7.40;;;2.20;;
5042;SDS011;2540;50.928;6.856;2023-03-09T16:08:22;7.90;;;2.03;;
5042;SDS011;2540;50.928;6.856;2023-03-09T16:10:47;15.80;;;2.47;;
5042;SDS011;2540;50.928;6.856;2023-03-09T16:13:13;8.90;;;2.23;;
5042;SDS011;2540;50.928;6.856;2023-03-09T16:15:39;20.33;;;2.57;;
5042;SDS011;2540;50.928;6.856;2023-03-09T16:18:05;12.87;;;2.70;;
5042;SDS011;2540;50.928;6.856;2023-03-09T16:20:31;11.77;;;2.30;;
5042;SDS011;2540;50.928;6.856;2023-03-09T16:22:56;13.93;;;2.60;;
5042;SDS011;2540;50.928;6.856;2023-03-09T16:25:21;10.77;;;2.80;;